Nearby METAR Reports

 

NZWN - Wellington Intl, New Zealand
Distance from station: SSE 156km
Updated: Tue, 19-Jun-2018 10:00pm NZST
Light rain, Overcast
Light rain, Overcast
 Wind from S
Wind: S 35 km/h
Summary: Light rain
Clouds: Overcast
Visibility: 10 km
Cloud details: Few Clouds 884 m
Overcast 1067 m
2018/06/19 10:00 NZWN 191000Z AUTO 18019KT 9999 -RA FEW029/// OVC035/// 10/0
NZAA - Auckland Intl Ar, New Zealand
Distance from station: N 334km
Updated: Tue, 19-Jun-2018 9:30pm NZST
Clear
Clear
 Wind from E
Wind: E 6 km/h
Temperature: 13°C
Dew Point: 12°C
Humidity: 94%
Barometer: 1012 hPa
Clouds: Clear
Visibility: 10 km
2018/06/19 09:30 NZAA 190930Z AUTO 09003KT 9999 NCD 13/12 Q1012 NOSIG
 
NZWP - Whenuapai (nz-Af, New Zealand
Distance from station: N 359km
Updated: Fri, 15-Jun-2018 8:00am NZST
NOT Current
Nearby showers, Mostly cloudy
Nearby showers, Mostly cloudy
 Wind from NW
Wind: NW 6 km/h
Temperature: 8°C
Dew Point: 8°C
Humidity: 100%
Barometer: 1019 hPa
Summary: Nearby Showers
Clouds: Mostly cloudy
Cloud details: Few Clouds 274 m
Partly cloudy 518 m
Mostly cloudy 853 m
2018/06/14 20:00 NZWP 142000Z 31003KT 12KM VCSH FEW009 SCT017 BKN028 08/08 Q1019 TEMPO TL2100 4000 SHRA BKN008
NZCH - Christchurch Int, New Zealand
Distance from station: SSW 412km
Updated: Tue, 19-Jun-2018 10:00pm NZST
Light rain, Mostly cloudy
Light rain, Mostly cloudy
 Wind from WSW
Wind: WSW 20 km/h
Temperature: 7°C
Wind Chill: 4°C
Dew Point: 7°C
Humidity: 100%
Barometer: 1022 hPa
Summary: Light rain
Clouds: Mostly cloudy
Visibility: 6 km
Cloud details: Few Clouds 792 m
Mostly cloudy 1097 m
Mostly cloudy 1524 m
2018/06/19 10:00 NZCH 191000Z AUTO 24011KT 6000 -RA FEW026/// BKN036/// BKN050/// 07/07 Q1022 TEMPO 5000 DZ BKN014

Metar display script from Saratoga-Weather.org